sensor_id;sensor_type;location;lat;lon;timestamp;pressure;altitude;pressure_sealevel;temperature;humidity
10476;BME280;26166;48.264;11.436;2023-02-04T00:00:24;97077.69;;;9.50;60.76
10476;BME280;26166;48.264;11.436;2023-02-04T00:03:25;97084.59;;;9.51;61.02
10476;BME280;26166;48.264;11.436;2023-02-04T00:06:25;97077.44;;;9.53;60.80
10476;BME280;26166;48.264;11.436;2023-02-04T00:09:26;97082.66;;;9.53;60.77
10476;BME280;26166;48.264;11.436;2023-02-04T00:12:26;97084.31;;;9.54;60.65
10476;BME280;26166;48.264;11.436;2023-02-04T00:15:26;97088.59;;;9.55;60.95
10476;BME280;26166;48.264;11.436;2023-02-04T00:18:27;97098.09;;;9.56;60.82
10476;BME280;26166;48.264;11.436;2023-02-04T00:21:27;97094.53;;;9.57;60.84
10476;BME280;26166;48.264;11.436;2023-02-04T00:24:28;97095.38;;;9.57;60.91
10476;BME280;26166;48.264;11.436;2023-02-04T00:27:28;97094.25;;;9.60;60.92
10476;BME280;26166;48.264;11.436;2023-02-04T00:30:28;97107.50;;;9.58;60.96
10476;BME280;26166;48.264;11.436;2023-02-04T00:33:28;97109.84;;;9.62;61.03
10476;BME280;26166;48.264;11.436;2023-02-04T00:36:29;97102.81;;;9.62;60.92
10476;BME280;26166;48.264;11.436;2023-02-04T00:39:29;97118.56;;;9.62;61.00
10476;BME280;26166;48.264;11.436;2023-02-04T00:42:29;97116.91;;;9.61;61.00
10476;BME280;26166;48.264;11.436;2023-02-04T00:45:29;97111.66;;;9.61;61.30
10476;BME280;26166;48.264;11.436;2023-02-04T00:48:29;97112.47;;;9.62;61.20
10476;BME280;26166;48.264;11.436;2023-02-04T00:51:29;97130.84;;;9.62;61.15
10476;BME280;26166;48.264;11.436;2023-02-04T00:54:30;97135.94;;;9.63;61.19
10476;BME280;26166;48.264;11.436;2023-02-04T00:57:30;97132.34;;;9.64;61.32
10476;BME280;26166;48.264;11.436;2023-02-04T01:00:30;97143.81;;;9.63;61.35
10476;BME280;26166;48.264;11.436;2023-02-04T01:03:30;97145.47;;;9.64;61.31
10476;BME280;26166;48.264;11.436;2023-02-04T01:06:31;97145.47;;;9.64;61.21
10476;BME280;26166;48.264;11.436;2023-02-04T01:09:31;97151.53;;;9.65;61.10
10476;BME280;26166;48.264;11.436;2023-02-04T01:12:31;97150.84;;;9.63;61.22
10476;BME280;26166;48.264;11.436;2023-02-04T01:15:32;97160.25;;;9.65;61.02
10476;BME280;26166;48.264;11.436;2023-02-04T01:18:32;97163.81;;;9.64;61.47
10476;BME280;26166;48.264;11.436;2023-02-04T01:21:32;97169.88;;;9.65;61.23
10476;BME280;26166;48.264;11.436;2023-02-04T01:24:32;97162.88;;;9.65;61.08
10476;BME280;26166;48.264;11.436;2023-02-04T01:27:32;97168.25;;;9.64;60.80
10476;BME280;26166;48.264;11.436;2023-02-04T01:30:33;97174.31;;;9.64;60.81
10476;BME280;26166;48.264;11.436;2023-02-04T01:33:33;97178.47;;;9.67;60.78
10476;BME280;26166;48.264;11.436;2023-02-04T01:36:33;97168.81;;;9.67;60.79
10476;BME280;26166;48.264;11.436;2023-02-04T01:39:33;97169.78;;;9.66;60.76
10476;BME280;26166;48.264;11.436;2023-02-04T01:42:33;97186.50;;;9.65;60.97
10476;BME280;26166;48.264;11.436;2023-02-04T01:45:34;97187.16;;;9.67;60.73
10476;BME280;26166;48.264;11.436;2023-02-04T01:48:34;97199.59;;;9.65;60.81
10476;BME280;26166;48.264;11.436;2023-02-04T01:51:34;97195.31;;;9.64;60.69
10476;BME280;26166;48.264;11.436;2023-02-04T01:54:36;97195.31;;;9.64;60.54
10476;BME280;26166;48.264;11.436;2023-02-04T01:57:36;97199.44;;;9.67;60.70
10476;BME280;26166;48.264;11.436;2023-02-04T02:00:37;97200.44;;;9.66;60.63
10476;BME280;26166;48.264;11.436;2023-02-04T02:03:38;97188.13;;;9.66;60.40
10476;BME280;26166;48.264;11.436;2023-02-04T02:06:39;97192.69;;;9.64;60.64
10476;BME280;26166;48.264;11.436;2023-02-04T02:09:40;97205.53;;;9.67;60.54
10476;BME280;26166;48.264;11.436;2023-02-04T02:12:40;97196.69;;;9.68;60.43
10476;BME280;26166;48.264;11.436;2023-02-04T02:15:40;97208.16;;;9.67;60.50
10476;BME280;26166;48.264;11.436;2023-02-04T02:18:41;97209.13;;;9.66;60.61
10476;BME280;26166;48.264;11.436;2023-02-04T02:21:43;97217.81;;;9.67;60.52
10476;BME280;26166;48.264;11.436;2023-02-04T02:24:44;97216.84;;;9.68;60.00
10476;BME280;26166;48.264;11.436;2023-02-04T02:27:45;97229.41;;;9.64;60.09
10476;BME280;26166;48.264;11.436;2023-02-04T02:30:45;97238.09;;;9.65;60.03
10476;BME280;26166;48.264;11.436;2023-02-04T02:33:46;97237.28;;;9.64;60.10
10476;BME280;26166;48.264;11.436;2023-02-04T02:36:46;97231.75;;;9.67;59.72
10476;BME280;26166;48.264;11.436;2023-02-04T02:39:46;97231.91;;;9.66;59.70
10476;BME280;26166;48.264;11.436;2023-02-04T02:42:48;97232.03;;;9.64;59.48
10476;BME280;26166;48.264;11.436;2023-02-04T02:45:50;97232.84;;;9.65;59.83
10476;BME280;26166;48.264;11.436;2023-02-04T02:48:50;97230.38;;;9.63;59.37
10476;BME280;26166;48.264;11.436;2023-02-04T02:51:50;97242.53;;;9.64;59.43
10476;BME280;26166;48.264;11.436;2023-02-04T02:54:50;97238.25;;;9.63;59.42
10476;BME280;26166;48.264;11.436;2023-02-04T02:57:52;97240.03;;;9.63;59.51
10476;BME280;26166;48.264;11.436;2023-02-04T03:00:53;97242.53;;;9.64;59.26
10476;BME280;26166;48.264;11.436;2023-02-04T03:03:55;97249.00;;;9.60;59.34
10476;BME280;26166;48.264;11.436;2023-02-04T03:06:55;97260.19;;;9.62;59.26
10476;BME280;26166;48.264;11.436;2023-02-04T03:09:55;97252.34;;;9.62;59.12
10476;BME280;26166;48.264;11.436;2023-02-04T03:12:55;97256.59;;;9.63;59.10
10476;BME280;26166;48.264;11.436;2023-02-04T03:15:55;97255.78;;;9.63;59.24
10476;BME280;26166;48.264;11.436;2023-02-04T03:18:56;97266.13;;;9.64;59.29
10476;BME280;26166;48.264;11.436;2023-02-04T03:21:56;97260.19;;;9.62;58.89
10476;BME280;26166;48.264;11.436;2023-02-04T03:24:57;97268.06;;;9.62;58.90
10476;BME280;26166;48.264;11.436;2023-02-04T03:27:57;97284.63;;;9.63;58.58
10476;BME280;26166;48.264;11.436;2023-02-04T03:30:57;97287.66;;;9.58;58.79
10476;BME280;26166;48.264;11.436;2023-02-04T03:33:57;97293.59;;;9.60;58.60
10476;BME280;26166;48.264;11.436;2023-02-04T03:36:58;97302.44;;;9.59;58.50
10476;BME280;26166;48.264;11.436;2023-02-04T03:39:58;97304.09;;;9.60;58.45
10476;BME280;26166;48.264;11.436;2023-02-04T03:42:58;97316.25;;;9.61;58.36
10476;BME280;26166;48.264;11.436;2023-02-04T03:45:58;97314.59;;;9.60;58.33
10476;BME280;26166;48.264;11.436;2023-02-04T03:48:58;97322.44;;;9.60;58.13
10476;BME280;26166;48.264;11.436;2023-02-04T03:51:59;97338.06;;;9.62;57.87
10476;BME280;26166;48.264;11.436;2023-02-04T03:54:59;97345.13;;;9.61;57.84
10476;BME280;26166;48.264;11.436;2023-02-04T03:57:59;97349.41;;;9.62;57.52
10476;BME280;26166;48.264;11.436;2023-02-04T04:00:59;97360.72;;;9.63;57.94
10476;BME280;26166;48.264;11.436;2023-02-04T04:03:59;97356.28;;;9.63;57.51
10476;BME280;26166;48.264;11.436;2023-02-04T04:07:00;97359.88;;;9.62;57.71
10476;BME280;26166;48.264;11.436;2023-02-04T04:10:00;97365.13;;;9.62;57.48
10476;BME280;26166;48.264;11.436;2023-02-04T04:13:00;97372.03;;;9.63;57.43
10476;BME280;26166;48.264;11.436;2023-02-04T04:16:00;97377.44;;;9.62;57.36
10476;BME280;26166;48.264;11.436;2023-02-04T04:19:02;97366.78;;;9.63;57.14
10476;BME280;26166;48.264;11.436;2023-02-04T04:22:02;97376.47;;;9.63;57.01
10476;BME280;26166;48.264;11.436;2023-02-04T04:25:03;97374.91;;;9.60;56.77
10476;BME280;26166;48.264;11.436;2023-02-04T04:28:03;97377.44;;;9.62;56.82
10476;BME280;26166;48.264;11.436;2023-02-04T04:31:04;97378.50;;;9.59;56.80
10476;BME280;26166;48.264;11.436;2023-02-04T04:34:04;97374.81;;;9.62;56.67
10476;BME280;26166;48.264;11.436;2023-02-04T04:37:04;97384.59;;;9.59;56.49
10476;BME280;26166;48.264;11.436;2023-02-04T04:40:05;97379.63;;;9.56;56.80
10476;BME280;26166;48.264;11.436;2023-02-04T04:43:05;97387.34;;;9.58;56.70
10476;BME280;26166;48.264;11.436;2023-02-04T04:46:05;97383.06;;;9.57;56.46
10476;BME280;26166;48.264;11.436;2023-02-04T04:49:05;97393.81;;;9.54;56.44
10476;BME280;26166;48.264;11.436;2023-02-04T04:52:06;97390.22;;;9.55;56.56
10476;BME280;26166;48.264;11.436;2023-02-04T04:55:06;97391.88;;;9.56;56.28
10476;BME280;26166;48.264;11.436;2023-02-04T04:58:07;97393.56;;;9.57;56.38
10476;BME280;26166;48.264;11.436;2023-02-04T05:01:07;97410.13;;;9.57;55.96
10476;BME280;26166;48.264;11.436;2023-02-04T05:04:07;97412.31;;;9.52;56.27
10476;BME280;26166;48.264;11.436;2023-02-04T05:07:08;97421.03;;;9.53;56.01
10476;BME280;26166;48.264;11.436;2023-02-04T05:10:08;97427.91;;;9.54;55.94
10476;BME280;26166;48.264;11.436;2023-02-04T05:13:08;97425.03;;;9.57;55.65
10476;BME280;26166;48.264;11.436;2023-02-04T05:16:09;97427.09;;;9.53;55.65
10476;BME280;26166;48.264;11.436;2023-02-04T05:19:12;97430.53;;;9.54;55.59
10476;BME280;26166;48.264;11.436;2023-02-04T05:22:12;97424.31;;;9.55;55.54
10476;BME280;26166;48.264;11.436;2023-02-04T05:25:12;97436.63;;;9.54;55.41
10476;BME280;26166;48.264;11.436;2023-02-04T05:28:15;97433.84;;;9.56;55.24
10476;BME280;26166;48.264;11.436;2023-02-04T05:31:15;97435.78;;;9.54;55.17
10476;BME280;26166;48.264;11.436;2023-02-04T05:34:15;97435.66;;;9.55;55.02
10476;BME280;26166;48.264;11.436;2023-02-04T05:37:16;97436.75;;;9.53;55.28
10476;BME280;26166;48.264;11.436;2023-02-04T05:40:18;97440.91;;;9.55;54.92
10476;BME280;26166;48.264;11.436;2023-02-04T05:43:18;97436.75;;;9.53;54.65
10476;BME280;26166;48.264;11.436;2023-02-04T05:46:18;97451.66;;;9.52;54.81
10476;BME280;26166;48.264;11.436;2023-02-04T05:49:18;97457.59;;;9.54;54.92
10476;BME280;26166;48.264;11.436;2023-02-04T05:52:18;97474.16;;;9.55;54.86
10476;BME280;26166;48.264;11.436;2023-02-04T05:55:19;97479.41;;;9.55;55.27
10476;BME280;26166;48.264;11.436;2023-02-04T05:58:19;97475.00;;;9.55;54.86
10476;BME280;26166;48.264;11.436;2023-02-04T06:01:19;97481.06;;;9.56;54.68
10476;BME280;26166;48.264;11.436;2023-02-04T06:04:19;97491.56;;;9.56;54.82
10476;BME280;26166;48.264;11.436;2023-02-04T06:07:19;97493.50;;;9.54;54.83
10476;BME280;26166;48.264;11.436;2023-02-04T06:10:20;97504.00;;;9.54;54.98
10476;BME280;26166;48.264;11.436;2023-02-04T06:13:20;97512.53;;;9.56;54.75
10476;BME280;26166;48.264;11.436;2023-02-04T06:16:20;97518.50;;;9.58;55.04
10476;BME280;26166;48.264;11.436;2023-02-04T06:19:20;97526.53;;;9.56;54.81
10476;BME280;26166;48.264;11.436;2023-02-04T06:22:21;97525.41;;;9.59;54.78
10476;BME280;26166;48.264;11.436;2023-02-04T06:25:23;97531.63;;;9.58;54.54
10476;BME280;26166;48.264;11.436;2023-02-04T06:28:23;97533.53;;;9.56;54.68
10476;BME280;26166;48.264;11.436;2023-02-04T06:31:24;97537.13;;;9.55;54.48
10476;BME280;26166;48.264;11.436;2023-02-04T06:34:24;97536.28;;;9.54;54.49
10476;BME280;26166;48.264;11.436;2023-02-04T06:37:24;97539.06;;;9.53;54.52
10476;BME280;26166;48.264;11.436;2023-02-04T06:40:24;97535.59;;;9.52;54.40
10476;BME280;26166;48.264;11.436;2023-02-04T06:43:24;97537.13;;;9.55;54.37
10476;BME280;26166;48.264;11.436;2023-02-04T06:46:26;97540.72;;;9.54;54.56
10476;BME280;26166;48.264;11.436;2023-02-04T06:49:26;97546.78;;;9.54;54.57
10476;BME280;26166;48.264;11.436;2023-02-04T06:52:26;97554.78;;;9.53;54.42
10476;BME280;26166;48.264;11.436;2023-02-04T06:55:27;97558.25;;;9.53;54.59
10476;BME280;26166;48.264;11.436;2023-02-04T06:58:27;97557.13;;;9.56;54.45
10476;BME280;26166;48.264;11.436;2023-02-04T07:01:27;97567.63;;;9.56;54.38
10476;BME280;26166;48.264;11.436;2023-02-04T07:04:27;97562.66;;;9.53;54.28
10476;BME280;26166;48.264;11.436;2023-02-04T07:07:28;97560.88;;;9.53;54.20
10476;BME280;26166;48.264;11.436;2023-02-04T07:10:28;97568.88;;;9.52;54.43
10476;BME280;26166;48.264;11.436;2023-02-04T07:13:28;97587.25;;;9.52;54.43
10476;BME280;26166;48.264;11.436;2023-02-04T07:16:28;97581.28;;;9.50;54.33
10476;BME280;26166;48.264;11.436;2023-02-04T07:19:29;97574.81;;;9.54;54.17
10476;BME280;26166;48.264;11.436;2023-02-04T07:22:29;97584.47;;;9.53;54.07
10476;BME280;26166;48.264;11.436;2023-02-04T07:25:29;97589.00;;;9.51;54.29
10476;BME280;26166;48.264;11.436;2023-02-04T07:28:29;97589.59;;;9.55;53.91
10476;BME280;26166;48.264;11.436;2023-02-04T07:31:30;97595.22;;;9.50;53.98
10476;BME280;26166;48.264;11.436;2023-02-04T07:34:30;97603.81;;;9.52;53.87
10476;BME280;26166;48.264;11.436;2023-02-04T07:37:30;97602.00;;;9.53;53.78
10476;BME280;26166;48.264;11.436;2023-02-04T07:40:31;97609.16;;;9.51;53.70
10476;BME280;26166;48.264;11.436;2023-02-04T07:43:31;97615.50;;;9.48;53.57
10476;BME280;26166;48.264;11.436;2023-02-04T07:46:31;97630.13;;;9.51;53.49
10476;BME280;26166;48.264;11.436;2023-02-04T07:49:31;97627.50;;;9.51;53.80
10476;BME280;26166;48.264;11.436;2023-02-04T07:52:32;97632.75;;;9.51;53.60
10476;BME280;26166;48.264;11.436;2023-02-04T07:55:32;97627.66;;;9.49;53.43
10476;BME280;26166;48.264;11.436;2023-02-04T07:58:32;97637.31;;;9.49;53.68
10476;BME280;26166;48.264;11.436;2023-02-04T08:01:32;97642.56;;;9.49;53.64
10476;BME280;26166;48.264;11.436;2023-02-04T08:04:33;97636.50;;;9.48;53.62
10476;BME280;26166;48.264;11.436;2023-02-04T08:07:33;97635.38;;;9.51;53.41
10476;BME280;26166;48.264;11.436;2023-02-04T08:10:33;97646.84;;;9.50;53.17
10476;BME280;26166;48.264;11.436;2023-02-04T08:13:33;97644.47;;;9.47;53.46
10476;BME280;26166;48.264;11.436;2023-02-04T08:16:33;97639.50;;;9.44;53.41
10476;BME280;26166;48.264;11.436;2023-02-04T08:19:34;97645.56;;;9.44;53.16
10476;BME280;26166;48.264;11.436;2023-02-04T08:22:34;97640.41;;;9.43;53.30
10476;BME280;26166;48.264;11.436;2023-02-04T08:25:34;97657.13;;;9.42;53.52
10476;BME280;26166;48.264;11.436;2023-02-04T08:28:34;97652.72;;;9.42;53.02
10476;BME280;26166;48.264;11.436;2023-02-04T08:31:35;97644.97;;;9.41;53.48
10476;BME280;26166;48.264;11.436;2023-02-04T08:34:38;97658.78;;;9.43;53.54
10476;BME280;26166;48.264;11.436;2023-02-04T08:37:38;97659.66;;;9.43;53.57
10476;BME280;26166;48.264;11.436;2023-02-04T08:40:39;97663.19;;;9.42;53.67
10476;BME280;26166;48.264;11.436;2023-02-04T08:43:40;97665.59;;;9.45;53.81
10476;BME280;26166;48.264;11.436;2023-02-04T08:46:40;97671.53;;;9.47;53.66
10476;BME280;26166;48.264;11.436;2023-02-04T08:49:40;97670.69;;;9.47;53.86
10476;BME280;26166;48.264;11.436;2023-02-04T08:52:40;97676.66;;;9.49;53.76
10476;BME280;26166;48.264;11.436;2023-02-04T08:55:41;97687.25;;;9.47;53.50
10476;BME280;26166;48.264;11.436;2023-02-04T08:58:41;97689.88;;;9.47;54.14
10476;BME280;26166;48.264;11.436;2023-02-04T09:01:41;97705.97;;;9.54;54.67
10476;BME280;26166;48.264;11.436;2023-02-04T09:04:42;97710.38;;;9.53;54.00
10476;BME280;26166;48.264;11.436;2023-02-04T09:07:42;97718.00;;;9.56;54.00
10476;BME280;26166;48.264;11.436;2023-02-04T09:10:43;97720.75;;;9.55;53.86
10476;BME280;26166;48.264;11.436;2023-02-04T09:13:43;97715.13;;;9.59;54.16
10476;BME280;26166;48.264;11.436;2023-02-04T09:16:43;97720.25;;;9.61;53.83
10476;BME280;26166;48.264;11.436;2023-02-04T09:19:43;97723.59;;;9.63;53.93
10476;BME280;26166;48.264;11.436;2023-02-04T09:22:43;97725.63;;;9.59;54.18
10476;BME280;26166;48.264;11.436;2023-02-04T09:25:44;97721.91;;;9.62;54.19
10476;BME280;26166;48.264;11.436;2023-02-04T09:28:44;97724.41;;;9.64;54.52
10476;BME280;26166;48.264;11.436;2023-02-04T09:31:44;97735.72;;;9.64;54.33
10476;BME280;26166;48.264;11.436;2023-02-04T09:34:45;97738.94;;;9.68;54.41
10476;BME280;26166;48.264;11.436;2023-02-04T09:37:45;97736.31;;;9.68;54.02
10476;BME280;26166;48.264;11.436;2023-02-04T09:40:46;97740.97;;;9.64;54.07
10476;BME280;26166;48.264;11.436;2023-02-04T09:43:48;97737.53;;;9.64;54.43
10476;BME280;26166;48.264;11.436;2023-02-04T09:46:50;97745.41;;;9.64;54.40
10476;BME280;26166;48.264;11.436;2023-02-04T09:49:51;97748.84;;;9.64;54.33
10476;BME280;26166;48.264;11.436;2023-02-04T09:52:52;97753.84;;;9.67;54.52
10476;BME280;26166;48.264;11.436;2023-02-04T09:55:53;97763.53;;;9.67;54.23
10476;BME280;26166;48.264;11.436;2023-02-04T09:58:53;97757.31;;;9.68;54.37
10476;BME280;26166;48.264;11.436;2023-02-04T10:01:58;97763.16;;;9.71;54.47
10476;BME280;26166;48.264;11.436;2023-02-04T10:04:59;97761.50;;;9.70;54.38
10476;BME280;26166;48.264;11.436;2023-02-04T10:08:00;97763.97;;;9.72;54.26
10476;BME280;26166;48.264;11.436;2023-02-04T10:11:00;97773.66;;;9.71;54.23
10476;BME280;26166;48.264;11.436;2023-02-04T10:14:00;97768.41;;;9.71;54.49
10476;BME280;26166;48.264;11.436;2023-02-04T10:17:00;97773.66;;;9.71;54.60
10476;BME280;26166;48.264;11.436;2023-02-04T10:20:01;97771.72;;;9.73;54.59
10476;BME280;26166;48.264;11.436;2023-02-04T10:23:01;97775.91;;;9.76;54.52
10476;BME280;26166;48.264;11.436;2023-02-04T10:26:02;97773.28;;;9.76;54.57
10476;BME280;26166;48.264;11.436;2023-02-04T10:29:06;97777.56;;;9.77;54.60
10476;BME280;26166;48.264;11.436;2023-02-04T10:32:26;97773.13;;;9.77;54.81
10476;BME280;26166;48.264;11.436;2023-02-04T10:35:26;97780.06;;;9.78;54.87
10476;BME280;26166;48.264;11.436;2023-02-04T10:38:26;97782.69;;;9.78;54.58
10476;BME280;26166;48.264;11.436;2023-02-04T10:41:27;97783.63;;;9.77;54.71
10476;BME280;26166;48.264;11.436;2023-02-04T10:44:28;97794.28;;;9.76;54.59
10476;BME280;26166;48.264;11.436;2023-02-04T10:47:29;97795.22;;;9.75;54.23
10476;BME280;26166;48.264;11.436;2023-02-04T10:50:29;97789.41;;;9.71;54.52
10476;BME280;26166;48.264;11.436;2023-02-04T10:53:29;97792.97;;;9.70;54.49
10476;BME280;26166;48.264;11.436;2023-02-04T10:56:49;97785.16;;;9.48;54.52
10476;BME280;26166;48.264;11.436;2023-02-04T10:59:49;97796.63;;;9.35;55.00
10476;BME280;26166;48.264;11.436;2023-02-04T11:03:01;97786.38;;;9.32;55.06
10476;BME280;26166;48.264;11.436;2023-02-04T11:06:10;97781.84;;;9.34;54.59
10476;BME280;26166;48.264;11.436;2023-02-04T11:09:11;97784.72;;;9.31;55.02
10476;BME280;26166;48.264;11.436;2023-02-04T11:12:23;97784.47;;;9.23;54.67
10476;BME280;26166;48.264;11.436;2023-02-04T11:15:42;97781.34;;;9.29;54.28
10476;BME280;26166;48.264;11.436;2023-02-04T11:18:47;97780.53;;;9.29;54.45
10476;BME280;26166;48.264;11.436;2023-02-04T11:21:47;97783.75;;;9.32;54.43
10476;BME280;26166;48.264;11.436;2023-02-04T11:24:48;97782.44;;;9.27;54.75
10476;BME280;26166;48.264;11.436;2023-02-04T11:27:48;97789.72;;;9.34;54.57
10476;BME280;26166;48.264;11.436;2023-02-04T11:30:57;97780.06;;;9.35;54.33
10476;BME280;26166;48.264;11.436;2023-02-04T11:34:11;97781.59;;;9.38;54.65
10476;BME280;26166;48.264;11.436;2023-02-04T11:40:27;97778.50;;;9.44;54.44
10476;BME280;26166;48.264;11.436;2023-02-04T11:43:28;97775.16;;;9.42;54.34
10476;BME280;26166;48.264;11.436;2023-02-04T11:46:31;97774.44;;;9.40;54.30
10476;BME280;26166;48.264;11.436;2023-02-04T11:49:34;97769.91;;;9.42;54.02
10476;BME280;26166;48.264;11.436;2023-02-04T11:52:34;97770.63;;;9.44;54.15
10476;BME280;26166;48.264;11.436;2023-02-04T11:55:35;97766.59;;;9.40;53.94
10476;BME280;26166;48.264;11.436;2023-02-04T11:58:41;97769.94;;;9.30;54.19
10476;BME280;26166;48.264;11.436;2023-02-04T12:01:41;97769.09;;;9.30;53.78
10476;BME280;26166;48.264;11.436;2023-02-04T12:04:52;97771.72;;;9.30;53.73
10476;BME280;26166;48.264;11.436;2023-02-04T12:07:52;97770.63;;;9.32;53.64
10476;BME280;26166;48.264;11.436;2023-02-04T12:11:27;97765.16;;;9.24;53.60
10476;BME280;26166;48.264;11.436;2023-02-04T12:14:20;97771.84;;;9.28;53.63
10476;BME280;26166;48.264;11.436;2023-02-04T12:17:20;97770.28;;;9.37;53.58
10476;BME280;26166;48.264;11.436;2023-02-04T12:20:20;97762.13;;;9.51;53.55
10476;BME280;26166;48.264;11.436;2023-02-04T12:23:20;97760.56;;;9.60;53.01
10476;BME280;26166;48.264;11.436;2023-02-04T12:26:21;97760.31;;;9.63;53.18
10476;BME280;26166;48.264;11.436;2023-02-04T12:29:21;97765.06;;;9.69;53.01
10476;BME280;26166;48.264;11.436;2023-02-04T12:32:21;97762.19;;;9.72;53.00
10476;BME280;26166;48.264;11.436;2023-02-04T12:35:21;97764.56;;;9.75;52.53
10476;BME280;26166;48.264;11.436;2023-02-04T12:38:22;97760.97;;;9.76;52.35
10476;BME280;26166;48.264;11.436;2023-02-04T12:41:22;97760.03;;;9.77;52.14
10476;BME280;26166;48.264;11.436;2023-02-04T12:44:22;97767.88;;;9.77;52.01
10476;BME280;26166;48.264;11.436;2023-02-04T12:47:22;97768.84;;;9.76;51.67
10476;BME280;26166;48.264;11.436;2023-02-04T12:50:23;97762.66;;;9.77;51.96
10476;BME280;26166;48.264;11.436;2023-02-04T12:53:23;97767.66;;;9.80;51.70
10476;BME280;26166;48.264;11.436;2023-02-04T12:56:23;97770.13;;;9.82;51.87
10476;BME280;26166;48.264;11.436;2023-02-04T12:59:24;97770.97;;;9.82;52.02
10476;BME280;26166;48.264;11.436;2023-02-04T13:02:25;97774.31;;;9.84;51.83
10476;BME280;26166;48.264;11.436;2023-02-04T13:05:25;97769.06;;;9.84;51.54
10476;BME280;26166;48.264;11.436;2023-02-04T13:08:25;97770.88;;;9.84;51.39
10476;BME280;26166;48.264;11.436;2023-02-04T13:11:25;97772.66;;;9.83;51.29
10476;BME280;26166;48.264;11.436;2023-02-04T13:14:26;97777.06;;;9.83;51.38
10476;BME280;26166;48.264;11.436;2023-02-04T13:17:26;97778.16;;;9.80;51.27
10476;BME280;26166;48.264;11.436;2023-02-04T13:20:26;97771.94;;;9.81;51.49
10476;BME280;26166;48.264;11.436;2023-02-04T13:23:26;97782.44;;;9.81;51.50
10476;BME280;26166;48.264;11.436;2023-02-04T13:26:26;97789.09;;;9.85;51.39
10476;BME280;26166;48.264;11.436;2023-02-04T13:29:27;97792.56;;;9.86;51.46
10476;BME280;26166;48.264;11.436;2023-02-04T13:32:27;97790.06;;;9.84;51.17
10476;BME280;26166;48.264;11.436;2023-02-04T13:35:28;97790.06;;;9.84;51.18
10476;BME280;26166;48.264;11.436;2023-02-04T13:38:28;97799.72;;;9.84;50.63
10476;BME280;26166;48.264;11.436;2023-02-04T13:41:29;97798.91;;;9.83;51.09
10476;BME280;26166;48.264;11.436;2023-02-04T13:44:29;97802.47;;;9.82;50.75
10476;BME280;26166;48.264;11.436;2023-02-04T13:47:29;97801.41;;;9.85;50.97
10476;BME280;26166;48.264;11.436;2023-02-04T13:50:29;97810.22;;;9.84;51.21
10476;BME280;26166;48.264;11.436;2023-02-04T13:53:30;97819.19;;;9.81;50.96
10476;BME280;26166;48.264;11.436;2023-02-04T13:56:30;97823.34;;;9.84;51.23
10476;BME280;26166;48.264;11.436;2023-02-04T13:59:32;97822.53;;;9.83;51.22
10476;BME280;26166;48.264;11.436;2023-02-04T14:02:33;97829.44;;;9.84;51.14
10476;BME280;26166;48.264;11.436;2023-02-04T14:05:33;97830.63;;;9.80;50.84
10476;BME280;26166;48.264;11.436;2023-02-04T14:08:34;97830.50;;;9.82;50.59
10476;BME280;26166;48.264;11.436;2023-02-04T14:11:34;97828.72;;;9.82;50.99
10476;BME280;26166;48.264;11.436;2023-02-04T14:14:34;97831.59;;;9.79;50.52
10476;BME280;26166;48.264;11.436;2023-02-04T14:17:34;97832.28;;;9.81;50.97
10476;BME280;26166;48.264;11.436;2023-02-04T14:20:35;97835.88;;;9.80;50.57
10476;BME280;26166;48.264;11.436;2023-02-04T14:23:35;97841.97;;;9.81;50.65
10476;BME280;26166;48.264;11.436;2023-02-04T14:26:35;97838.50;;;9.80;50.51
10476;BME280;26166;48.264;11.436;2023-02-04T14:29:36;97843.63;;;9.82;50.77
10476;BME280;26166;48.264;11.436;2023-02-04T14:32:36;97845.41;;;9.81;50.46
10476;BME280;26166;48.264;11.436;2023-02-04T14:35:36;97856.88;;;9.80;50.42
10476;BME280;26166;48.264;11.436;2023-02-04T14:38:36;97860.19;;;9.82;50.50
10476;BME280;26166;48.264;11.436;2023-02-04T14:41:38;97859.28;;;9.83;50.48
10476;BME280;26166;48.264;11.436;2023-02-04T14:44:38;97864.63;;;9.82;50.72
10476;BME280;26166;48.264;11.436;2023-02-04T14:47:38;97858.69;;;9.80;50.16
10476;BME280;26166;48.264;11.436;2023-02-04T14:50:39;97870.84;;;9.81;50.13
10476;BME280;26166;48.264;11.436;2023-02-04T14:53:39;97864.06;;;9.78;50.04
10476;BME280;26166;48.264;11.436;2023-02-04T14:56:39;97867.38;;;9.80;50.22
10476;BME280;26166;48.264;11.436;2023-02-04T14:59:40;97867.25;;;9.82;50.42
10476;BME280;26166;48.264;11.436;2023-02-04T15:02:40;97868.22;;;9.81;50.42
10476;BME280;26166;48.264;11.436;2023-02-04T15:05:41;97862.81;;;9.82;50.44
10476;BME280;26166;48.264;11.436;2023-02-04T15:08:41;97862.81;;;9.82;50.08
10476;BME280;26166;48.264;11.436;2023-02-04T15:11:43;97872.63;;;9.80;49.95
10476;BME280;26166;48.264;11.436;2023-02-04T15:14:44;97870.69;;;9.82;50.26
10476;BME280;26166;48.264;11.436;2023-02-04T15:17:44;97868.22;;;9.81;50.49
10476;BME280;26166;48.264;11.436;2023-02-04T15:20:44;97867.38;;;9.80;50.25
10476;BME280;26166;48.264;11.436;2023-02-04T15:23:44;97862.13;;;9.80;50.47
10476;BME280;26166;48.264;11.436;2023-02-04T15:26:46;97876.91;;;9.81;50.11
10476;BME280;26166;48.264;11.436;2023-02-04T15:29:46;97887.19;;;9.73;50.10
10476;BME280;26166;48.264;11.436;2023-02-04T15:32:46;97878.38;;;9.63;49.99
10476;BME280;26166;48.264;11.436;2023-02-04T15:35:47;97889.59;;;9.54;50.33
10476;BME280;26166;48.264;11.436;2023-02-04T15:38:47;97883.38;;;9.55;50.34
10476;BME280;26166;48.264;11.436;2023-02-04T15:41:47;97899.59;;;9.60;50.31
10476;BME280;26166;48.264;11.436;2023-02-04T15:44:48;97899.59;;;9.60;50.11
10476;BME280;26166;48.264;11.436;2023-02-04T15:47:48;97905.34;;;9.54;50.24
10476;BME280;26166;48.264;11.436;2023-02-04T15:50:49;97915.69;;;9.55;50.01
10476;BME280;26166;48.264;11.436;2023-02-04T15:53:50;97912.97;;;9.57;50.41
10476;BME280;26166;48.264;11.436;2023-02-04T15:56:50;97913.22;;;9.54;50.24
10476;BME280;26166;48.264;11.436;2023-02-04T15:59:50;97911.28;;;9.56;50.25